Time;durP1;ratioP1;P1;durP2;ratioP2;P2;SDS_P1;SDS_P2;PMS_P1;PMS_P2;Temp;Humidity;BMP_temperature;BMP_pressure;BME280_temperature;BME280_humidity;BME280_pressure;Samples;Min_cycle;Max_cycle;Signal;HPM_P1;HPM_P2
2022/03/30 00:00:27;;;;;;;16.15;11.13;;;20.10;71.30;;;;;;7900221;28;20651;-53
2022/03/30 00:04:13;;;;;;;14.40;10.75;;;20.10;71.30;;;;;;7899983;28;20549;-51
2022/03/30 00:07:58;;;;;;;16.10;11.50;;;20.10;71.30;;;;;;7900464;28;20211;-50
2022/03/30 00:11:44;;;;;;;15.32;10.88;;;20.10;71.30;;;;;;7900380;28;20208;-49
2022/03/30 00:15:30;;;;;;;15.75;10.98;;;20.00;71.30;;;;;;7900320;28;20267;-52
2022/03/30 00:19:15;;;;;;;16.95;11.20;;;20.00;71.30;;;;;;7900317;28;20180;-50
2022/03/30 00:23:01;;;;;;;16.27;11.98;;;20.00;71.30;;;;;;7904308;28;20276;-50
2022/03/30 00:26:46;;;;;;;15.63;11.25;;;20.00;71.30;;;;;;7906514;28;20203;-50
2022/03/30 00:30:32;;;;;;;15.45;11.20;;;19.90;71.30;;;;;;7906225;28;20180;-49
2022/03/30 00:34:17;;;;;;;15.43;11.82;;;19.90;71.20;;;;;;7906257;28;20192;-50
2022/03/30 00:38:03;;;;;;;16.92;11.73;;;19.90;71.20;;;;;;7906160;28;20251;-50
2022/03/30 00:41:48;;;;;;;15.27;11.20;;;19.90;71.30;;;;;;7905996;28;20169;-51
2022/03/30 00:45:34;;;;;;;14.90;11.27;;;19.80;71.20;;;;;;7905769;28;20296;-50
2022/03/30 00:49:19;;;;;;;15.50;11.55;;;19.80;71.20;;;;;;7905439;28;20581;-50
2022/03/30 00:53:05;;;;;;;14.45;11.25;;;19.80;71.20;;;;;;7906077;28;20192;-51
2022/03/30 00:56:51;;;;;;;14.82;11.05;;;19.80;71.20;;;;;;7905495;28;20184;-53
2022/03/30 01:00:38;;;;;;;16.77;11.10;;;19.80;71.10;;;;;;7905391;28;20212;-52
2022/03/30 01:04:23;;;;;;;16.30;11.60;;;19.80;71.20;;;;;;7905232;28;20249;-50
2022/03/30 01:08:09;;;;;;;16.10;11.73;;;19.70;71.10;;;;;;7905264;28;20390;-49
2022/03/30 01:11:55;;;;;;;16.17;11.35;;;19.70;71.10;;;;;;7904914;28;20185;-50
2022/03/30 01:15:41;;;;;;;14.52;10.75;;;19.70;71.10;;;;;;7904850;28;20886;-49
2022/03/30 01:19:31;;;;;;;15.15;11.70;;;19.70;71.10;;;;;;7904687;28;20207;-50
2022/03/30 01:23:17;;;;;;;16.92;11.02;;;19.60;71.10;;;;;;7904707;28;20776;-49
2022/03/30 01:27:03;;;;;;;15.57;11.05;;;19.60;71.10;;;;;;7904638;28;20665;-50
2022/03/30 01:35:02;;;;;;;16.05;11.48;;;19.70;71.20;;;;;;7903693;28;20184;-51
2022/03/30 01:38:47;;;;;;;16.00;11.02;;;19.60;71.10;;;;;;7904504;28;20181;-50
2022/03/30 01:42:34;;;;;;;16.05;11.45;;;19.60;71.10;;;;;;7904269;28;20177;-50
2022/03/30 01:46:19;;;;;;;15.90;11.27;;;19.50;71.10;;;;;;7903978;28;20705;-52
2022/03/30 01:50:05;;;;;;;14.98;11.20;;;19.50;71.10;;;;;;7903647;28;20641;-49
2022/03/30 01:53:51;;;;;;;16.63;11.63;;;19.50;71.00;;;;;;7903933;28;20243;-51
2022/03/30 01:57:36;;;;;;;16.10;11.73;;;19.50;71.00;;;;;;7903729;28;20661;-53
2022/03/30 02:01:22;;;;;;;15.80;11.27;;;19.50;71.10;;;;;;7903465;28;20172;-50
2022/03/30 02:05:09;;;;;;;15.55;10.95;;;19.50;71.10;;;;;;7903459;28;20287;-51
2022/03/30 02:08:54;;;;;;;14.75;10.73;;;19.50;71.10;;;;;;7903397;28;20283;-52
2022/03/30 02:12:40;;;;;;;16.25;11.32;;;19.40;70.90;;;;;;7903024;28;20234;-50
2022/03/30 02:16:26;;;;;;;13.75;10.32;;;19.40;71.00;;;;;;7903588;28;20187;-50
2022/03/30 02:20:12;;;;;;;14.88;10.88;;;19.40;71.00;;;;;;7902990;28;20188;-49
2022/03/30 02:23:57;;;;;;;13.40;10.30;;;19.40;71.00;;;;;;7903037;28;20211;-50
2022/03/30 02:27:43;;;;;;;15.45;10.95;;;19.30;71.00;;;;;;7903347;28;20212;-49
2022/03/30 02:31:29;;;;;;;17.33;10.98;;;19.30;70.90;;;;;;7902743;28;20750;-49
2022/03/30 02:35:14;;;;;;;15.93;11.63;;;19.30;71.00;;;;;;7903007;28;20279;-49
2022/03/30 02:39:00;;;;;;;13.82;10.65;;;19.30;71.00;;;;;;7903171;28;20264;-50
2022/03/30 02:42:45;;;;;;;14.57;10.77;;;19.30;71.00;;;;;;7902593;28;20183;-53
2022/03/30 02:46:31;;;;;;;15.85;10.95;;;19.30;71.00;;;;;;7901520;28;20738;-49
2022/03/30 02:50:16;;;;;;;15.77;11.40;;;19.30;71.00;;;;;;7902176;28;20191;-49
2022/03/30 02:54:02;;;;;;;14.80;10.93;;;19.20;70.90;;;;;;7902334;28;20241;-51
2022/03/30 02:57:47;;;;;;;15.45;10.93;;;19.30;71.00;;;;;;7902104;28;20208;-49
2022/03/30 03:01:33;;;;;;;16.42;10.82;;;19.20;70.90;;;;;;7901644;28;20658;-49
2022/03/30 03:05:18;;;;;;;13.52;10.13;;;19.20;71.00;;;;;;7901688;28;20227;-49
2022/03/30 03:09:04;;;;;;;15.32;11.40;;;19.20;70.90;;;;;;7901565;28;20271;-49
2022/03/30 03:12:49;;;;;;;14.18;10.02;;;19.10;70.90;;;;;;7901285;28;20424;-49
2022/03/30 03:16:35;;;;;;;14.32;10.60;;;19.20;71.00;;;;;;7901387;28;20541;-49
2022/03/30 03:20:21;;;;;;;16.13;11.18;;;19.20;71.00;;;;;;7901319;28;20176;-51
2022/03/30 03:24:06;;;;;;;15.52;10.32;;;19.10;70.90;;;;;;7901114;28;20200;-52
2022/03/30 03:27:52;;;;;;;14.00;10.43;;;19.10;71.00;;;;;;7901144;28;20211;-49
2022/03/30 03:31:38;;;;;;;14.20;10.45;;;19.10;70.90;;;;;;7900904;28;20191;-49
2022/03/30 03:35:24;;;;;;;15.48;10.98;;;19.10;70.90;;;;;;7900894;28;20253;-49
2022/03/30 03:39:09;;;;;;;13.68;9.75;;;19.10;70.90;;;;;;7900675;28;20185;-49
2022/03/30 03:42:54;;;;;;;14.02;10.55;;;19.10;71.00;;;;;;7900657;28;20248;-51
2022/03/30 03:46:40;;;;;;;15.13;10.57;;;19.00;70.80;;;;;;7900606;28;20208;-51
2022/03/30 03:50:26;;;;;;;13.38;9.95;;;19.00;70.80;;;;;;7900409;28;20224;-49
2022/03/30 03:54:12;;;;;;;13.77;10.10;;;19.00;70.90;;;;;;7900493;28;20184;-52
2022/03/30 03:57:57;;;;;;;13.73;10.27;;;19.00;71.00;;;;;;7900264;28;20195;-51
2022/03/30 04:01:43;;;;;;;15.00;10.30;;;19.00;70.90;;;;;;7898316;28;20177;-51
2022/03/30 04:05:29;;;;;;;14.15;10.63;;;19.00;71.00;;;;;;7930699;28;20246;-53
2022/03/30 04:09:14;;;;;;;16.80;9.73;;;19.00;70.90;;;;;;7930980;28;20168;-51
2022/03/30 04:13:00;;;;;;;17.02;11.20;;;19.00;70.80;;;;;;7931128;28;20196;-52
2022/03/30 04:16:46;;;;;;;16.10;10.57;;;18.90;71.00;;;;;;7930912;28;20186;-51
2022/03/30 04:20:32;;;;;;;19.23;10.30;;;18.90;71.10;;;;;;7912622;28;20184;-50
2022/03/30 04:24:18;;;;;;;15.30;10.55;;;18.90;71.10;;;;;;7930934;28;20273;-51
2022/03/30 04:28:04;;;;;;;16.98;10.75;;;18.90;71.70;;;;;;7931051;28;20219;-49
2022/03/30 04:31:49;;;;;;;15.80;10.32;;;18.90;71.10;;;;;;7930498;28;20191;-49
2022/03/30 04:35:38;;;;;;;14.95;10.52;;;18.90;71.20;;;;;;7930823;28;20195;-51
2022/03/30 04:39:23;;;;;;;16.10;10.65;;;18.90;71.30;;;;;;7930338;28;20540;-49
2022/03/30 04:43:09;;;;;;;19.23;10.18;;;18.90;71.30;;;;;;7930541;28;20249;-50
2022/03/30 04:46:54;;;;;;;24.20;10.95;;;18.90;71.40;;;;;;7928606;28;20196;-49
2022/03/30 04:50:40;;;;;;;18.50;10.68;;;18.90;71.10;;;;;;7898492;28;20184;-49
2022/03/30 04:54:25;;;;;;;30.73;11.55;;;18.90;71.10;;;;;;7919655;28;20210;-50
2022/03/30 04:58:11;;;;;;;18.90;10.75;;;18.90;71.40;;;;;;7959800;27;20695;-51
2022/03/30 05:01:57;;;;;;;23.70;10.88;;;19.00;71.30;;;;;;7961578;27;20163;-49
2022/03/30 05:05:43;;;;;;;22.63;10.32;;;19.00;71.60;;;;;;7961892;27;20278;-49
2022/03/30 05:09:29;;;;;;;23.50;12.18;;;19.10;71.60;;;;;;7964557;27;20172;-51
2022/03/30 05:13:14;;;;;;;24.10;11.43;;;19.00;71.70;;;;;;7967812;27;20202;-50
2022/03/30 05:17:01;;;;;;;20.60;11.40;;;19.10;71.50;;;;;;7964532;27;20191;-50
2022/03/30 05:20:46;;;;;;;19.20;11.95;;;19.10;71.50;;;;;;7935011;28;20196;-50
2022/03/30 05:24:32;;;;;;;16.63;10.82;;;19.20;71.60;;;;;;7935461;28;20202;-49
2022/03/30 05:28:18;;;;;;;18.73;11.25;;;19.20;71.40;;;;;;7935373;28;20226;-49
2022/03/30 05:32:04;;;;;;;38.13;13.48;;;19.20;71.10;;;;;;7930967;28;20189;-50
2022/03/30 05:35:50;;;;;;;59.35;16.55;;;19.20;70.80;;;;;;7903551;28;20257;-51
2022/03/30 05:39:39;;;;;;;98.63;16.75;;;19.10;67.80;;;;;;7903088;28;20189;-50
2022/03/30 05:43:25;;;;;;;109.53;16.38;;;19.00;70.20;;;;;;7903346;28;20253;-49
2022/03/30 05:47:11;;;;;;;99.55;15.77;;;19.00;70.60;;;;;;7908279;28;20677;-49
2022/03/30 05:50:57;;;;;;;87.60;17.02;;;19.00;70.70;;;;;;7934231;27;20671;-49
2022/03/30 05:54:43;;;;;;;99.97;16.08;;;19.00;70.80;;;;;;7934765;28;20241;-51
2022/03/30 05:58:28;;;;;;;72.95;14.85;;;19.00;70.70;;;;;;7934743;28;20625;-50
2022/03/30 06:02:15;;;;;;;83.85;17.83;;;19.00;70.50;;;;;;7928654;28;20239;-52
2022/03/30 06:06:01;;;;;;;61.05;16.13;;;18.90;70.60;;;;;;7903032;28;20696;-49
2022/03/30 06:09:46;;;;;;;61.30;15.18;;;18.90;70.50;;;;;;7902453;28;20685;-49
2022/03/30 06:13:32;;;;;;;54.55;14.73;;;18.90;70.50;;;;;;7902848;28;20196;-52
2022/03/30 06:17:18;;;;;;;52.70;14.80;;;19.00;70.50;;;;;;7909189;28;20188;-52
2022/03/30 06:21:04;;;;;;;52.97;13.30;;;19.10;70.30;;;;;;7933187;28;20176;-49
2022/03/30 06:24:50;;;;;;;45.25;13.25;;;19.20;70.30;;;;;;7933839;28;20207;-48
2022/03/30 06:28:35;;;;;;;53.05;13.80;;;19.30;70.60;;;;;;7933887;28;20234;-51
2022/03/30 06:32:21;;;;;;;44.30;13.02;;;19.50;70.70;;;;;;7925950;28;20223;-49
2022/03/30 06:36:06;;;;;;;40.22;13.30;;;19.60;70.70;;;;;;7901668;28;20639;-49
2022/03/30 06:39:51;;;;;;;36.75;12.88;;;19.70;70.60;;;;;;7901394;28;20180;-51
2022/03/30 06:43:42;;;;;;;45.72;12.30;;;19.80;70.60;;;;;;7901610;28;20210;-49
2022/03/30 06:47:27;;;;;;;30.83;11.65;;;19.90;70.70;;;;;;7909348;28;20256;-50
2022/03/30 06:51:14;;;;;;;36.55;12.77;;;19.90;70.70;;;;;;7932376;27;20219;-49
2022/03/30 06:55:00;;;;;;;36.55;13.07;;;20.00;70.70;;;;;;7932889;28;20184;-51
2022/03/30 06:58:45;;;;;;;33.97;11.55;;;20.00;70.80;;;;;;7930330;28;20176;-49
2022/03/30 07:02:31;;;;;;;41.17;10.82;;;20.10;70.80;;;;;;7923136;28;20246;-51
2022/03/30 07:06:17;;;;;;;34.58;11.77;;;20.10;70.80;;;;;;7900835;28;20211;-49
2022/03/30 07:10:15;;;;;;;37.80;12.40;;;20.10;71.00;;;;;;7900316;28;20172;-49
2022/03/30 07:14:00;;;;;;;29.10;11.35;;;20.10;70.90;;;;;;7900595;28;20192;-49
2022/03/30 07:17:54;;;;;;;24.85;11.43;;;20.10;71.10;;;;;;7912184;28;20198;-49
2022/03/30 07:21:40;;;;;;;30.50;11.18;;;20.10;71.00;;;;;;7931739;27;20176;-50
2022/03/30 07:25:27;;;;;;;31.05;11.82;;;20.20;71.10;;;;;;7931791;28;20263;-49
2022/03/30 07:29:12;;;;;;;25.17;10.52;;;20.10;71.20;;;;;;7931571;28;20208;-51
2022/03/30 07:32:59;;;;;;;25.63;10.75;;;20.20;71.30;;;;;;7917794;28;20385;-49
2022/03/30 07:36:44;;;;;;;27.30;10.35;;;20.20;71.30;;;;;;7900175;28;20183;-52
2022/03/30 07:40:31;;;;;;;31.13;11.50;;;20.20;71.40;;;;;;7899950;28;20590;-49
2022/03/30 07:44:17;;;;;;;18.60;11.18;;;20.20;71.40;;;;;;7900473;28;20639;-52
2022/03/30 07:48:03;;;;;;;22.85;10.80;;;20.20;71.40;;;;;;7914339;28;20238;-49
2022/03/30 07:51:48;;;;;;;19.13;10.00;;;20.20;71.60;;;;;;7931046;28;20195;-49
2022/03/30 07:55:35;;;;;;;21.55;10.77;;;20.10;71.50;;;;;;7931544;28;20210;-51
2022/03/30 07:59:20;;;;;;;28.60;12.48;;;20.10;71.60;;;;;;7928702;28;20438;-50
2022/03/30 08:03:06;;;;;;;27.15;10.02;;;20.00;72.20;;;;;;7916952;28;20205;-49
2022/03/30 08:06:52;;;;;;;34.20;11.05;;;20.00;72.00;;;;;;7900453;28;20232;-54
2022/03/30 08:10:37;;;;;;;30.75;10.32;;;20.10;71.70;;;;;;7900156;28;20233;-48
2022/03/30 08:14:23;;;;;;;26.85;10.77;;;20.20;71.50;;;;;;7899982;28;20302;-50
2022/03/30 08:18:09;;;;;;;34.70;10.15;;;20.20;71.30;;;;;;7915320;28;20190;-51
2022/03/30 08:25:58;;;;;;;25.98;9.75;;;20.20;71.10;;;;;;7931376;28;20207;-53
2022/03/30 08:29:45;;;;;;;20.77;10.32;;;20.20;71.00;;;;;;7931104;28;20196;-50
2022/03/30 08:33:31;;;;;;;23.13;11.10;;;20.30;71.10;;;;;;7912854;28;20253;-51
2022/03/30 08:37:17;;;;;;;31.27;10.85;;;20.30;71.20;;;;;;7899883;28;20234;-50
2022/03/30 08:41:03;;;;;;;22.08;9.82;;;20.30;71.20;;;;;;7899522;28;20264;-50
2022/03/30 08:44:49;;;;;;;20.35;9.68;;;20.20;71.20;;;;;;7904877;28;20685;-51
2022/03/30 08:48:34;;;;;;;22.52;9.77;;;20.30;71.20;;;;;;7925051;28;20203;-51
2022/03/30 08:52:20;;;;;;;24.42;10.40;;;20.30;71.20;;;;;;7936763;28;20217;-49
2022/03/30 08:56:05;;;;;;;25.67;10.18;;;20.20;71.40;;;;;;7937091;28;20196;-51
2022/03/30 09:00:05;;;;;;;21.45;10.02;;;20.20;71.70;;;;;;7934237;28;20176;-49
2022/03/30 09:03:58;;;;;;;21.13;10.18;;;20.10;71.90;;;;;;7936446;28;20199;-50
2022/03/30 09:07:48;;;;;;;17.77;9.45;;;20.10;72.20;;;;;;7936464;28;20700;-49
2022/03/30 09:11:44;;;;;;;16.75;10.80;;;20.10;72.10;;;;;;7935951;28;20171;-49
2022/03/30 09:15:29;;;;;;;22.17;10.63;;;20.10;72.20;;;;;;7936113;28;20184;-51
2022/03/30 09:19:18;;;;;;;20.48;10.70;;;20.10;72.10;;;;;;7910279;28;20721;-50
2022/03/30 09:23:05;;;;;;;17.02;10.73;;;20.10;72.40;;;;;;7904299;28;20228;-51
2022/03/30 09:26:51;;;;;;;22.88;10.63;;;20.10;72.40;;;;;;7904209;28;20200;-49
2022/03/30 09:30:37;;;;;;;22.13;10.95;;;20.00;72.30;;;;;;7903738;28;20168;-51
2022/03/30 09:34:23;;;;;;;21.63;10.60;;;20.00;72.30;;;;;;7928180;28;20250;-49
2022/03/30 09:38:11;;;;;;;20.80;10.07;;;20.00;72.20;;;;;;7935661;28;20180;-50
2022/03/30 09:41:59;;;;;;;21.45;10.90;;;20.10;72.30;;;;;;7935041;28;20198;-52
2022/03/30 09:45:46;;;;;;;20.00;10.23;;;20.20;72.90;;;;;;7935435;28;20199;-49
2022/03/30 09:49:47;;;;;;;23.10;10.55;;;20.20;72.20;;;;;;7935219;28;20192;-49
2022/03/30 09:53:34;;;;;;;26.05;10.48;;;20.30;72.20;;;;;;7934719;28;20219;-52
2022/03/30 09:57:22;;;;;;;13.30;9.65;;;20.40;72.30;;;;;;7934825;28;20175;-49
2022/03/30 10:01:29;;;;;;;21.15;9.45;;;20.40;72.10;;;;;;7934564;28;20170;-49
2022/03/30 10:05:21;;;;;;;17.83;9.20;;;20.50;72.10;;;;;;7903079;28;20254;-51
2022/03/30 10:09:06;;;;;;;18.52;9.70;;;20.60;72.00;;;;;;7902810;28;20373;-51
2022/03/30 10:12:52;;;;;;;17.13;9.32;;;20.70;72.00;;;;;;7902718;28;20192;-49
2022/03/30 10:16:38;;;;;;;19.05;9.15;;;20.80;71.70;;;;;;7906738;28;20229;-50
2022/03/30 10:20:24;;;;;;;14.52;9.57;;;20.90;71.50;;;;;;7933720;28;20693;-50
2022/03/30 10:24:45;;;;;;;20.20;9.48;;;20.90;71.30;;;;;;7934041;28;20188;-52
2022/03/30 10:28:40;;;;;;;14.52;9.05;;;20.90;71.20;;;;;;7933951;28;20717;-49
2022/03/30 10:32:32;;;;;;;13.95;8.75;;;21.00;71.20;;;;;;7923202;28;20195;-52
2022/03/30 10:36:32;;;;;;;16.33;8.20;;;21.00;71.10;;;;;;7901605;28;20279;-51
2022/03/30 10:40:25;;;;;;;18.77;8.30;;;20.90;72.10;;;;;;7902364;28;20267;-52
2022/03/30 10:44:34;;;;;;;14.23;8.18;;;20.90;71.10;;;;;;7901722;28;20303;-52
2022/03/30 10:48:37;;;;;;;13.10;7.82;;;20.90;71.10;;;;;;7920715;28;20275;-53
2022/03/30 10:52:38;;;;;;;12.75;7.35;;;20.80;71.00;;;;;;7932983;28;20191;-52
2022/03/30 10:56:26;;;;;;;14.95;8.20;;;20.90;71.10;;;;;;7932923;28;20210;-50
2022/03/30 11:00:20;;;;;;;13.93;7.28;;;20.80;71.10;;;;;;7928531;28;20185;-50
2022/03/30 11:04:16;;;;;;;15.43;7.05;;;20.70;71.10;;;;;;7926551;28;20294;-49
2022/03/30 11:08:05;;;;;;;12.93;7.13;;;20.70;71.60;;;;;;7906044;28;20245;-50
2022/03/30 11:11:57;;;;;;;15.05;7.50;;;20.70;71.70;;;;;;7900648;28;20264;-50
2022/03/30 11:15:59;;;;;;;12.30;6.97;;;20.60;72.00;;;;;;7900890;28;20218;-50
2022/03/30 11:19:47;;;;;;;12.88;7.00;;;20.60;72.20;;;;;;7900569;28;20191;-50
2022/03/30 11:23:32;;;;;;;13.73;6.95;;;20.60;72.20;;;;;;7900634;28;20200;-50
2022/03/30 11:27:19;;;;;;;11.07;6.72;;;20.60;72.20;;;;;;7900617;28;20258;-52
2022/03/30 11:31:19;;;;;;;10.65;6.78;;;20.60;72.40;;;;;;7900759;28;20181;-51
2022/03/30 11:35:10;;;;;;;11.95;6.13;;;20.60;72.30;;;;;;7929336;28;20187;-50
2022/03/30 11:38:59;;;;;;;16.38;7.60;;;20.60;72.30;;;;;;7932239;28;20175;-49
2022/03/30 11:42:50;;;;;;;14.38;7.07;;;20.50;72.20;;;;;;7931838;28;20178;-50
2022/03/30 11:46:38;;;;;;;12.15;6.47;;;20.50;72.40;;;;;;7931792;28;20337;-50
2022/03/30 11:50:47;;;;;;;11.65;6.40;;;20.50;72.60;;;;;;7931635;28;20199;-50
2022/03/30 11:54:49;;;;;;;13.95;6.30;;;20.50;72.90;;;;;;7932134;28;20196;-50
2022/03/30 11:58:41;;;;;;;14.13;7.22;;;20.50;73.00;;;;;;7931977;28;20554;-50
2022/03/30 12:02:30;;;;;;;14.18;8.10;;;20.50;72.70;;;;;;7931541;28;20221;-50
2022/03/30 12:06:15;;;;;;;12.45;6.82;;;20.40;72.90;;;;;;7931594;28;20207;-52
2022/03/30 12:10:02;;;;;;;14.00;6.55;;;20.40;72.90;;;;;;7931431;28;20813;-50
2022/03/30 12:13:52;;;;;;;11.35;7.00;;;20.40;72.80;;;;;;7931385;28;20729;-51
2022/03/30 12:17:39;;;;;;;12.15;7.13;;;20.30;73.00;;;;;;7933304;28;20176;-51
2022/03/30 12:21:30;;;;;;;15.00;6.53;;;20.30;73.20;;;;;;7937614;28;20183;-52
2022/03/30 12:25:18;;;;;;;14.20;6.18;;;20.30;73.20;;;;;;7927880;28;20207;-52
2022/03/30 12:29:14;;;;;;;17.23;7.18;;;20.20;73.10;;;;;;7905827;28;20267;-50
2022/03/30 12:33:00;;;;;;;13.15;6.68;;;20.10;72.50;;;;;;7923075;28;20621;-52
2022/03/30 12:36:48;;;;;;;16.38;6.90;;;20.10;72.50;;;;;;7937264;28;20287;-51
2022/03/30 12:40:37;;;;;;;12.73;6.28;;;20.10;72.50;;;;;;7936966;28;20269;-52
2022/03/30 12:44:23;;;;;;;12.35;6.45;;;20.10;72.80;;;;;;7937098;28;20200;-53
2022/03/30 12:48:10;;;;;;;13.02;6.00;;;20.10;72.80;;;;;;7918311;28;20692;-51
2022/03/30 12:52:04;;;;;;;15.98;5.93;;;20.20;73.80;;;;;;7904754;28;20223;-52
2022/03/30 12:55:54;;;;;;;14.60;6.57;;;20.30;72.70;;;;;;7905149;28;20200;-50
2022/03/30 12:59:41;;;;;;;13.30;6.03;;;20.10;71.70;;;;;;7907349;28;20185;-50
2022/03/30 13:03:32;;;;;;;12.85;6.00;;;20.20;72.20;;;;;;7904701;28;20200;-52
2022/03/30 13:07:21;;;;;;;14.63;5.63;;;20.30;72.30;;;;;;7904827;28;20304;-49
2022/03/30 13:11:07;;;;;;;14.75;5.22;;;20.50;72.10;;;;;;7904240;28;20252;-52
2022/03/30 13:14:52;;;;;;;13.10;5.78;;;20.60;72.00;;;;;;7904303;28;20223;-52
2022/03/30 13:18:39;;;;;;;14.23;5.05;;;20.70;71.90;;;;;;7928133;28;20543;-50
2022/03/30 13:22:25;;;;;;;14.35;5.43;;;20.70;72.00;;;;;;7936220;28;20172;-50
2022/03/30 13:26:31;;;;;;;11.73;4.50;;;20.70;71.70;;;;;;7929585;28;20212;-50
2022/03/30 13:30:16;;;;;;;11.45;4.78;;;20.80;71.70;;;;;;7934184;28;20176;-51
2022/03/30 13:34:05;;;;;;;21.73;5.15;;;20.90;71.80;;;;;;7934486;28;20202;-55
2022/03/30 13:37:51;;;;;;;12.07;4.70;;;20.90;71.60;;;;;;7933501;28;20180;-50
2022/03/30 13:41:38;;;;;;;17.20;5.22;;;20.90;71.50;;;;;;7912870;28;20200;-50
2022/03/30 13:45:23;;;;;;;18.15;5.20;;;20.90;71.60;;;;;;7904934;28;20340;-53
2022/03/30 13:49:09;;;;;;;10.70;4.43;;;20.90;71.60;;;;;;7926810;28;20207;-53
2022/03/30 13:52:54;;;;;;;19.67;4.55;;;20.90;71.80;;;;;;7904181;28;20685;-53
2022/03/30 13:56:40;;;;;;;22.10;4.57;;;20.90;71.80;;;;;;7902787;28;20237;-53
2022/03/30 14:00:27;;;;;;;14.80;4.47;;;20.80;71.80;;;;;;7902507;28;20275;-53
2022/03/30 14:04:12;;;;;;;19.90;5.10;;;20.80;71.70;;;;;;7902869;28;20212;-54
2022/03/30 14:07:58;;;;;;;15.88;4.63;;;20.80;71.60;;;;;;7902339;28;20678;-53
2022/03/30 14:11:44;;;;;;;21.45;4.90;;;20.80;71.70;;;;;;7909612;28;20710;-53
2022/03/30 14:15:31;;;;;;;26.00;5.50;;;20.80;72.00;;;;;;7927014;28;20197;-54
2022/03/30 14:19:18;;;;;;;25.95;5.15;;;20.70;72.20;;;;;;7906908;28;20200;-53
2022/03/30 14:23:05;;;;;;;25.88;4.70;;;20.60;72.30;;;;;;7901811;28;20306;-55
2022/03/30 14:26:52;;;;;;;40.15;5.45;;;20.60;72.40;;;;;;7901445;28;20196;-53
2022/03/30 14:30:38;;;;;;;24.45;4.50;;;20.50;72.40;;;;;;7916417;28;20179;-55
2022/03/30 14:34:24;;;;;;;34.60;5.72;;;20.50;72.40;;;;;;7933171;28;20192;-52
2022/03/30 14:38:10;;;;;;;28.20;4.90;;;20.50;72.30;;;;;;7932382;28;20202;-53
2022/03/30 14:41:56;;;;;;;18.70;4.93;;;20.50;72.30;;;;;;7901819;28;20180;-53
2022/03/30 14:45:41;;;;;;;21.00;4.95;;;20.40;72.30;;;;;;7930985;28;20206;-54
2022/03/30 14:49:27;;;;;;;16.90;4.25;;;20.40;72.30;;;;;;7932926;28;20677;-52
2022/03/30 14:53:13;;;;;;;23.90;5.85;;;20.40;72.20;;;;;;7923915;28;20773;-55
2022/03/30 14:56:58;;;;;;;21.58;5.40;;;20.40;72.20;;;;;;7902414;28;20735;-53
2022/03/30 15:00:44;;;;;;;10.77;4.60;;;20.40;72.20;;;;;;7901615;28;20184;-53
2022/03/30 15:04:29;;;;;;;20.23;4.72;;;20.30;72.10;;;;;;7901540;28;20200;-54
2022/03/30 15:08:15;;;;;;;16.10;4.22;;;20.40;72.10;;;;;;7901129;28;20882;-53
2022/03/30 15:12:00;;;;;;;20.75;4.45;;;20.40;72.10;;;;;;7901032;28;20176;-53
2022/03/30 15:15:46;;;;;;;18.63;4.00;;;20.40;71.80;;;;;;7903449;28;20212;-53
2022/03/30 15:19:33;;;;;;;12.25;4.65;;;20.40;71.60;;;;;;7911319;28;20199;-52
2022/03/30 15:23:18;;;;;;;16.60;4.15;;;20.50;71.40;;;;;;7931146;28;20200;-53
2022/03/30 15:27:05;;;;;;;12.48;4.22;;;20.60;71.30;;;;;;7932035;28;20256;-53
2022/03/30 15:30:51;;;;;;;13.18;3.92;;;20.80;71.00;;;;;;7914382;28;20189;-53
2022/03/30 15:34:37;;;;;;;26.55;4.30;;;20.90;71.80;;;;;;7900920;28;20225;-53
2022/03/30 15:38:22;;;;;;;12.27;4.30;;;21.00;70.90;;;;;;7900635;28;20950;-53
2022/03/30 15:42:08;;;;;;;14.40;3.95;;;21.20;70.50;;;;;;7900813;28;20173;-54
2022/03/30 15:45:53;;;;;;;15.82;3.97;;;21.40;70.10;;;;;;7900761;28;20231;-53
2022/03/30 15:49:41;;;;;;;14.82;4.20;;;21.60;69.90;;;;;;7900340;28;20203;-53
2022/03/30 15:53:28;;;;;;;15.82;4.35;;;21.70;69.60;;;;;;7900941;28;20199;-53
2022/03/30 15:57:14;;;;;;;10.50;4.57;;;22.00;69.30;;;;;;7901442;28;20673;-54
2022/03/30 16:01:00;;;;;;;9.52;3.70;;;22.20;68.90;;;;;;7903899;28;20236;-53
2022/03/30 16:04:46;;;;;;;8.07;4.07;;;22.40;68.70;;;;;;7902939;28;20826;-52
2022/03/30 16:12:36;;;;;;;9.82;3.72;;;22.70;67.80;;;;;;7901950;28;20173;-52
2022/03/30 16:16:22;;;;;;;11.93;3.20;;;22.80;67.60;;;;;;7901896;28;20211;-53
2022/03/30 16:20:20;;;;;;;14.00;3.65;;;22.80;67.40;;;;;;7904268;28;20271;-53
2022/03/30 16:24:08;;;;;;;7.80;3.60;;;22.80;67.40;;;;;;7902212;28;20234;-52
2022/03/30 16:27:55;;;;;;;11.18;3.67;;;22.80;67.40;;;;;;7901546;28;20613;-53
2022/03/30 16:31:44;;;;;;;10.38;2.95;;;22.70;67.40;;;;;;7902472;28;20180;-52
2022/03/30 16:35:31;;;;;;;10.52;2.92;;;22.70;67.50;;;;;;7901176;28;20197;-53
2022/03/30 16:39:19;;;;;;;9.27;3.03;;;22.70;67.50;;;;;;7902395;28;20177;-53
2022/03/30 16:43:05;;;;;;;8.60;3.75;;;22.70;67.70;;;;;;7903448;28;20227;-53
2022/03/30 16:46:52;;;;;;;5.00;3.35;;;22.60;67.70;;;;;;7903217;28;20196;-53
2022/03/30 16:50:37;;;;;;;4.95;2.95;;;22.60;67.80;;;;;;7904949;28;20215;-53
2022/03/30 16:54:23;;;;;;;7.07;2.78;;;22.50;67.80;;;;;;7904002;28;20209;-53
2022/03/30 16:58:08;;;;;;;14.63;3.20;;;22.40;68.00;;;;;;7919309;28;20180;-54
2022/03/30 17:01:54;;;;;;;7.90;3.13;;;22.40;68.20;;;;;;7899645;28;20188;-53
2022/03/30 17:05:40;;;;;;;7.05;3.15;;;22.30;68.40;;;;;;7904841;28;20204;-53
2022/03/30 17:13:29;;;;;;;12.13;3.65;;;22.20;68.70;;;;;;7936694;28;20188;-53
2022/03/30 17:17:16;;;;;;;3.75;2.60;;;22.20;68.70;;;;;;7936144;28;20256;-54
2022/03/30 17:21:02;;;;;;;3.88;3.03;;;22.10;68.70;;;;;;7936286;28;20800;-53
2022/03/30 17:24:55;;;;;;;7.43;3.20;;;22.10;68.70;;;;;;7932438;28;20250;-53
2022/03/30 17:28:41;;;;;;;12.40;3.22;;;22.00;68.70;;;;;;7904692;28;20615;-53
2022/03/30 17:32:26;;;;;;;8.32;2.97;;;22.00;69.00;;;;;;7904566;28;20177;-53
2022/03/30 17:36:15;;;;;;;12.75;3.78;;;21.90;69.00;;;;;;7903611;28;20189;-53
2022/03/30 17:40:00;;;;;;;13.52;3.15;;;21.80;69.10;;;;;;7903439;28;20202;-53
2022/03/30 17:43:46;;;;;;;9.45;3.47;;;21.80;69.10;;;;;;7903698;28;20743;-52
2022/03/30 17:47:32;;;;;;;10.82;3.20;;;21.70;69.20;;;;;;7903324;28;20201;-53
2022/03/30 17:55:25;;;;;;;12.70;2.83;;;21.60;69.20;;;;;;7903546;28;20188;-52
2022/03/30 17:59:10;;;;;;;11.02;3.50;;;21.60;69.40;;;;;;7903177;28;20666;-54
2022/03/30 18:02:57;;;;;;;15.75;3.17;;;21.60;70.30;;;;;;7923816;28;20558;-56
2022/03/30 18:06:42;;;;;;;18.52;3.92;;;21.50;71.10;;;;;;7934155;28;20831;-54
2022/03/30 18:10:28;;;;;;;14.52;3.22;;;21.50;71.90;;;;;;7920849;28;20588;-53
2022/03/30 18:14:14;;;;;;;12.25;3.92;;;21.60;72.40;;;;;;7901813;28;20617;-55
2022/03/30 18:18:00;;;;;;;14.10;3.47;;;21.60;72.60;;;;;;7923183;28;20184;-53
2022/03/30 18:21:46;;;;;;;14.70;3.30;;;21.60;72.70;;;;;;7933649;28;20179;-53
2022/03/30 18:25:36;;;;;;;17.20;3.17;;;21.60;72.60;;;;;;7933476;28;20192;-56
2022/03/30 18:29:23;;;;;;;19.35;3.25;;;21.60;72.70;;;;;;7905866;28;20208;-53
2022/03/30 18:33:09;;;;;;;12.80;3.08;;;21.60;72.60;;;;;;7901239;28;20698;-56
2022/03/30 18:36:55;;;;;;;8.68;3.13;;;21.60;72.70;;;;;;7901661;28;20550;-53
2022/03/30 18:40:44;;;;;;;11.10;3.70;;;21.60;72.70;;;;;;7901420;28;20255;-53
2022/03/30 18:44:30;;;;;;;8.77;2.88;;;21.60;72.50;;;;;;7901214;28;20197;-53
2022/03/30 18:48:16;;;;;;;7.97;2.95;;;21.60;72.40;;;;;;7925531;28;20243;-55
2022/03/30 18:52:01;;;;;;;9.50;2.83;;;21.70;72.50;;;;;;7932365;28;20188;-53
2022/03/30 18:55:47;;;;;;;9.25;2.83;;;21.80;72.50;;;;;;7912029;28;20814;-53
2022/03/30 18:59:32;;;;;;;8.23;2.72;;;21.80;72.40;;;;;;7901030;28;20259;-53
2022/03/30 19:03:26;;;;;;;14.23;3.13;;;21.80;72.30;;;;;;7900913;28;20201;-53
2022/03/30 19:07:11;;;;;;;10.18;2.70;;;21.90;72.40;;;;;;7900718;28;20288;-53
2022/03/30 19:10:57;;;;;;;13.07;2.85;;;21.90;72.30;;;;;;7900818;28;20176;-54
2022/03/30 19:14:43;;;;;;;9.57;3.28;;;21.80;72.20;;;;;;7899780;28;20634;-53
2022/03/30 19:18:28;;;;;;;10.35;3.30;;;21.90;72.40;;;;;;7926142;28;20215;-53
2022/03/30 19:22:14;;;;;;;9.95;3.00;;;21.80;72.40;;;;;;7932221;28;20230;-54
2022/03/30 19:26:00;;;;;;;16.25;3.60;;;21.80;72.50;;;;;;7932030;28;20200;-53
2022/03/30 19:29:45;;;;;;;13.80;3.03;;;21.70;72.50;;;;;;7931181;28;20176;-53
2022/03/30 19:33:31;;;;;;;6.75;2.53;;;21.70;72.50;;;;;;7931230;28;20974;-54
2022/03/30 19:37:17;;;;;;;10.00;2.78;;;21.70;72.50;;;;;;7931112;28;20179;-52
2022/03/30 19:41:03;;;;;;;6.43;2.78;;;21.70;72.60;;;;;;7931635;28;20654;-53